sensor_id;sensor_type;location;lat;lon;timestamp;temperature;humidity
25945;SHT31;13742;49.306;8.636;2022-09-17T00:00:25;12.43;73.18
25945;SHT31;13742;49.306;8.636;2022-09-17T00:01:26;12.41;73.08
25945;SHT31;13742;49.306;8.636;2022-09-17T00:02:25;12.41;73.36
25945;SHT31;13742;49.306;8.636;2022-09-17T00:03:25;12.36;73.65
25945;SHT31;13742;49.306;8.636;2022-09-17T00:04:24;12.36;73.46
25945;SHT31;13742;49.306;8.636;2022-09-17T00:05:24;12.38;73.39
25945;SHT31;13742;49.306;8.636;2022-09-17T00:06:25;12.33;73.20
25945;SHT31;13742;49.306;8.636;2022-09-17T00:07:24;12.29;73.37
25945;SHT31;13742;49.306;8.636;2022-09-17T00:08:24;12.31;73.78
25945;SHT31;13742;49.306;8.636;2022-09-17T00:09:24;12.32;73.86
25945;SHT31;13742;49.306;8.636;2022-09-17T00:10:24;12.27;73.93
25945;SHT31;13742;49.306;8.636;2022-09-17T00:11:27;12.28;73.64
25945;SHT31;13742;49.306;8.636;2022-09-17T00:12:24;12.27;74.04
25945;SHT31;13742;49.306;8.636;2022-09-17T00:13:24;12.25;74.01
25945;SHT31;13742;49.306;8.636;2022-09-17T00:14:24;12.21;73.50
25945;SHT31;13742;49.306;8.636;2022-09-17T00:15:24;12.12;74.15
25945;SHT31;13742;49.306;8.636;2022-09-17T00:16:37;12.12;74.12
25945;SHT31;13742;49.306;8.636;2022-09-17T00:17:24;12.06;74.31
25945;SHT31;13742;49.306;8.636;2022-09-17T00:18:24;12.11;74.31
25945;SHT31;13742;49.306;8.636;2022-09-17T00:19:25;12.01;74.62
25945;SHT31;13742;49.306;8.636;2022-09-17T00:20:25;12.06;74.49
25945;SHT31;13742;49.306;8.636;2022-09-17T00:21:25;12.04;74.38
25945;SHT31;13742;49.306;8.636;2022-09-17T00:22:24;12.09;74.43
25945;SHT31;13742;49.306;8.636;2022-09-17T00:23:24;12.00;74.59
25945;SHT31;13742;49.306;8.636;2022-09-17T00:24:24;11.97;74.43
25945;SHT31;13742;49.306;8.636;2022-09-17T00:25:24;12.01;74.34
25945;SHT31;13742;49.306;8.636;2022-09-17T00:26:25;12.01;74.16
25945;SHT31;13742;49.306;8.636;2022-09-17T00:27:24;12.02;74.21
25945;SHT31;13742;49.306;8.636;2022-09-17T00:28:25;12.00;74.24
25945;SHT31;13742;49.306;8.636;2022-09-17T00:29:24;12.04;74.29
25945;SHT31;13742;49.306;8.636;2022-09-17T00:30:24;12.09;74.27
25945;SHT31;13742;49.306;8.636;2022-09-17T00:31:25;12.09;74.26
25945;SHT31;13742;49.306;8.636;2022-09-17T00:32:25;12.11;74.33
25945;SHT31;13742;49.306;8.636;2022-09-17T00:33:24;12.12;74.12
25945;SHT31;13742;49.306;8.636;2022-09-17T00:34:24;12.14;74.04
25945;SHT31;13742;49.306;8.636;2022-09-17T00:35:26;12.11;74.06
25945;SHT31;13742;49.306;8.636;2022-09-17T00:36:25;12.11;74.32
25945;SHT31;13742;49.306;8.636;2022-09-17T00:37:24;12.14;73.96
25945;SHT31;13742;49.306;8.636;2022-09-17T00:38:25;12.15;74.12
25945;SHT31;13742;49.306;8.636;2022-09-17T00:39:24;12.17;73.90
25945;SHT31;13742;49.306;8.636;2022-09-17T00:40:24;12.15;73.61
25945;SHT31;13742;49.306;8.636;2022-09-17T00:41:27;12.18;73.83
25945;SHT31;13742;49.306;8.636;2022-09-17T00:42:24;12.20;73.84
25945;SHT31;13742;49.306;8.636;2022-09-17T00:43:33;12.22;74.16
25945;SHT31;13742;49.306;8.636;2022-09-17T00:45:25;12.22;73.87
25945;SHT31;13742;49.306;8.636;2022-09-17T00:46:32;12.21;73.87
25945;SHT31;13742;49.306;8.636;2022-09-17T00:47:31;12.24;74.04
25945;SHT31;13742;49.306;8.636;2022-09-17T00:48:24;12.27;74.19
25945;SHT31;13742;49.306;8.636;2022-09-17T00:49:27;12.31;74.70
25945;SHT31;13742;49.306;8.636;2022-09-17T00:50:34;12.29;74.75
25945;SHT31;13742;49.306;8.636;2022-09-17T00:51:30;12.32;74.49
25945;SHT31;13742;49.306;8.636;2022-09-17T00:52:28;12.32;74.31
25945;SHT31;13742;49.306;8.636;2022-09-17T00:53:24;12.35;74.27
25945;SHT31;13742;49.306;8.636;2022-09-17T00:54:25;12.35;74.64
25945;SHT31;13742;49.306;8.636;2022-09-17T00:55:31;12.41;74.69
25945;SHT31;13742;49.306;8.636;2022-09-17T00:56:27;12.38;74.60
25945;SHT31;13742;49.306;8.636;2022-09-17T00:57:25;12.42;74.40
25945;SHT31;13742;49.306;8.636;2022-09-17T00:58:25;12.43;74.57
25945;SHT31;13742;49.306;8.636;2022-09-17T00:59:25;12.42;74.40
25945;SHT31;13742;49.306;8.636;2022-09-17T01:00:25;12.45;74.48
25945;SHT31;13742;49.306;8.636;2022-09-17T01:01:24;12.45;74.76
25945;SHT31;13742;49.306;8.636;2022-09-17T01:02:25;12.46;74.65
25945;SHT31;13742;49.306;8.636;2022-09-17T01:03:25;12.46;74.87
25945;SHT31;13742;49.306;8.636;2022-09-17T01:04:26;12.46;74.60
25945;SHT31;13742;49.306;8.636;2022-09-17T01:05:33;12.49;74.72
25945;SHT31;13742;49.306;8.636;2022-09-17T01:11:47;12.53;74.46
25945;SHT31;13742;49.306;8.636;2022-09-17T01:12:42;12.55;74.38
25945;SHT31;13742;49.306;8.636;2022-09-17T01:14:44;12.57;74.07
25945;SHT31;13742;49.306;8.636;2022-09-17T01:18:37;12.57;74.01
25945;SHT31;13742;49.306;8.636;2022-09-17T01:20:47;12.57;74.42
25945;SHT31;13742;49.306;8.636;2022-09-17T01:25:44;12.59;74.39
25945;SHT31;13742;49.306;8.636;2022-09-17T01:30:51;12.56;73.99
25945;SHT31;13742;49.306;8.636;2022-09-17T01:31:33;12.52;73.67
25945;SHT31;13742;49.306;8.636;2022-09-17T01:34:33;12.46;74.06
25945;SHT31;13742;49.306;8.636;2022-09-17T01:35:35;12.41;74.16
25945;SHT31;13742;49.306;8.636;2022-09-17T01:37:33;12.38;74.01
25945;SHT31;13742;49.306;8.636;2022-09-17T01:40:29;12.33;74.47
25945;SHT31;13742;49.306;8.636;2022-09-17T01:41:31;12.33;74.56
25945;SHT31;13742;49.306;8.636;2022-09-17T01:42:34;12.32;74.60
25945;SHT31;13742;49.306;8.636;2022-09-17T01:45:36;12.31;74.56
25945;SHT31;13742;49.306;8.636;2022-09-17T01:47:30;12.32;74.77
25945;SHT31;13742;49.306;8.636;2022-09-17T01:48:29;12.31;74.71
25945;SHT31;13742;49.306;8.636;2022-09-17T01:49:25;12.31;74.71
25945;SHT31;13742;49.306;8.636;2022-09-17T01:50:28;12.32;74.75
25945;SHT31;13742;49.306;8.636;2022-09-17T01:51:27;12.33;74.98
25945;SHT31;13742;49.306;8.636;2022-09-17T01:52:26;12.33;75.05
25945;SHT31;13742;49.306;8.636;2022-09-17T01:53:29;12.32;74.83
25945;SHT31;13742;49.306;8.636;2022-09-17T01:54:29;12.31;74.67
25945;SHT31;13742;49.306;8.636;2022-09-17T01:55:29;12.31;74.72
25945;SHT31;13742;49.306;8.636;2022-09-17T01:56:32;12.29;74.71
25945;SHT31;13742;49.306;8.636;2022-09-17T01:58:27;12.29;74.57
25945;SHT31;13742;49.306;8.636;2022-09-17T01:59:37;12.27;74.51
25945;SHT31;13742;49.306;8.636;2022-09-17T02:00:24;12.27;74.52
25945;SHT31;13742;49.306;8.636;2022-09-17T02:01:27;12.27;74.56
25945;SHT31;13742;49.306;8.636;2022-09-17T02:02:34;12.24;74.84
25945;SHT31;13742;49.306;8.636;2022-09-17T02:03:30;12.25;74.85
25945;SHT31;13742;49.306;8.636;2022-09-17T02:04:30;12.27;75.01
25945;SHT31;13742;49.306;8.636;2022-09-17T02:05:33;12.24;74.80
25945;SHT31;13742;49.306;8.636;2022-09-17T02:06:30;12.21;75.08
25945;SHT31;13742;49.306;8.636;2022-09-17T02:07:26;12.21;74.83
25945;SHT31;13742;49.306;8.636;2022-09-17T02:08:29;12.18;75.18
25945;SHT31;13742;49.306;8.636;2022-09-17T02:09:35;12.15;75.23
25945;SHT31;13742;49.306;8.636;2022-09-17T02:10:28;12.15;75.39
25945;SHT31;13742;49.306;8.636;2022-09-17T02:11:25;12.12;75.34
25945;SHT31;13742;49.306;8.636;2022-09-17T02:12:30;12.11;75.30
25945;SHT31;13742;49.306;8.636;2022-09-17T02:13:31;12.09;75.38
25945;SHT31;13742;49.306;8.636;2022-09-17T02:14:33;12.11;75.44
25945;SHT31;13742;49.306;8.636;2022-09-17T02:15:30;12.08;75.19
25945;SHT31;13742;49.306;8.636;2022-09-17T02:16:28;12.05;75.12
25945;SHT31;13742;49.306;8.636;2022-09-17T02:17:51;12.04;75.38
25945;SHT31;13742;49.306;8.636;2022-09-17T02:18:41;12.05;75.60
25945;SHT31;13742;49.306;8.636;2022-09-17T02:19:29;12.06;75.38
25945;SHT31;13742;49.306;8.636;2022-09-17T02:20:31;12.04;75.28
25945;SHT31;13742;49.306;8.636;2022-09-17T02:21:36;12.02;75.22
25945;SHT31;13742;49.306;8.636;2022-09-17T02:23:29;12.01;75.48
25945;SHT31;13742;49.306;8.636;2022-09-17T02:25:29;12.00;75.18
25945;SHT31;13742;49.306;8.636;2022-09-17T02:26:26;11.97;75.18
25945;SHT31;13742;49.306;8.636;2022-09-17T02:27:35;11.95;75.29
25945;SHT31;13742;49.306;8.636;2022-09-17T02:28:46;11.98;75.32
25945;SHT31;13742;49.306;8.636;2022-09-17T02:29:32;11.97;75.37
25945;SHT31;13742;49.306;8.636;2022-09-17T02:30:24;11.94;75.35
25945;SHT31;13742;49.306;8.636;2022-09-17T02:31:24;11.95;75.32
25945;SHT31;13742;49.306;8.636;2022-09-17T02:32:24;11.97;75.43
25945;SHT31;13742;49.306;8.636;2022-09-17T02:33:25;11.95;75.42
25945;SHT31;13742;49.306;8.636;2022-09-17T02:34:26;11.95;75.64
25945;SHT31;13742;49.306;8.636;2022-09-17T02:35:24;11.97;75.65
25945;SHT31;13742;49.306;8.636;2022-09-17T02:36:24;11.95;75.55
25945;SHT31;13742;49.306;8.636;2022-09-17T02:37:24;11.94;75.43
25945;SHT31;13742;49.306;8.636;2022-09-17T02:38:25;11.95;75.38
25945;SHT31;13742;49.306;8.636;2022-09-17T02:39:25;11.95;75.29
25945;SHT31;13742;49.306;8.636;2022-09-17T02:40:27;11.94;75.21
25945;SHT31;13742;49.306;8.636;2022-09-17T02:41:33;11.92;75.36
25945;SHT31;13742;49.306;8.636;2022-09-17T02:43:35;11.90;75.29
25945;SHT31;13742;49.306;8.636;2022-09-17T02:44:37;11.88;75.15
25945;SHT31;13742;49.306;8.636;2022-09-17T02:45:34;11.87;74.99
25945;SHT31;13742;49.306;8.636;2022-09-17T02:48:41;11.81;75.29
25945;SHT31;13742;49.306;8.636;2022-09-17T02:51:32;11.78;75.58
25945;SHT31;13742;49.306;8.636;2022-09-17T02:53:40;11.77;75.32
25945;SHT31;13742;49.306;8.636;2022-09-17T02:54:29;11.73;75.55
25945;SHT31;13742;49.306;8.636;2022-09-17T02:56:38;11.70;75.61
25945;SHT31;13742;49.306;8.636;2022-09-17T02:57:36;11.69;75.63
25945;SHT31;13742;49.306;8.636;2022-09-17T02:58:33;11.64;75.58
25945;SHT31;13742;49.306;8.636;2022-09-17T02:59:46;11.64;75.49
25945;SHT31;13742;49.306;8.636;2022-09-17T03:00:25;11.64;75.80
25945;SHT31;13742;49.306;8.636;2022-09-17T03:01:31;11.60;75.66
25945;SHT31;13742;49.306;8.636;2022-09-17T03:02:29;11.60;76.02
25945;SHT31;13742;49.306;8.636;2022-09-17T03:04:26;11.57;75.97
25945;SHT31;13742;49.306;8.636;2022-09-17T03:05:25;11.57;75.90
25945;SHT31;13742;49.306;8.636;2022-09-17T03:06:24;11.57;76.37
25945;SHT31;13742;49.306;8.636;2022-09-17T03:07:24;11.54;75.83
25945;SHT31;13742;49.306;8.636;2022-09-17T03:08:29;11.53;75.92
25945;SHT31;13742;49.306;8.636;2022-09-17T03:09:25;11.53;75.99
25945;SHT31;13742;49.306;8.636;2022-09-17T03:10:25;11.53;76.11
25945;SHT31;13742;49.306;8.636;2022-09-17T03:11:24;11.52;76.10
25945;SHT31;13742;49.306;8.636;2022-09-17T03:12:25;11.50;75.94
25945;SHT31;13742;49.306;8.636;2022-09-17T03:13:24;11.46;75.85
25945;SHT31;13742;49.306;8.636;2022-09-17T03:14:24;11.46;76.28
25945;SHT31;13742;49.306;8.636;2022-09-17T03:15:25;11.43;76.26
25945;SHT31;13742;49.306;8.636;2022-09-17T03:16:24;11.43;76.06
25945;SHT31;13742;49.306;8.636;2022-09-17T03:17:24;11.39;76.14
25945;SHT31;13742;49.306;8.636;2022-09-17T03:18:24;11.39;76.42
25945;SHT31;13742;49.306;8.636;2022-09-17T03:19:24;11.36;76.33
25945;SHT31;13742;49.306;8.636;2022-09-17T03:20:24;11.35;76.31
25945;SHT31;13742;49.306;8.636;2022-09-17T03:21:24;11.35;76.28
25945;SHT31;13742;49.306;8.636;2022-09-17T03:22:24;11.35;76.25
25945;SHT31;13742;49.306;8.636;2022-09-17T03:23:26;11.27;75.67
25945;SHT31;13742;49.306;8.636;2022-09-17T03:24:24;11.26;75.88
25945;SHT31;13742;49.306;8.636;2022-09-17T03:25:24;11.30;75.99
25945;SHT31;13742;49.306;8.636;2022-09-17T03:26:25;11.27;75.91
25945;SHT31;13742;49.306;8.636;2022-09-17T03:27:24;11.29;76.11
25945;SHT31;13742;49.306;8.636;2022-09-17T03:28:25;11.29;76.00
25945;SHT31;13742;49.306;8.636;2022-09-17T03:29:24;11.32;76.26
25945;SHT31;13742;49.306;8.636;2022-09-17T03:30:24;11.26;75.85
25945;SHT31;13742;49.306;8.636;2022-09-17T03:31:24;11.27;75.67
25945;SHT31;13742;49.306;8.636;2022-09-17T03:32:24;11.26;75.65
25945;SHT31;13742;49.306;8.636;2022-09-17T03:33:24;11.22;75.47
25945;SHT31;13742;49.306;8.636;2022-09-17T03:34:25;11.19;75.65
25945;SHT31;13742;49.306;8.636;2022-09-17T03:35:24;11.16;75.80
25945;SHT31;13742;49.306;8.636;2022-09-17T03:36:24;11.16;75.82
25945;SHT31;13742;49.306;8.636;2022-09-17T03:37:24;11.18;75.72
25945;SHT31;13742;49.306;8.636;2022-09-17T03:38:24;11.21;75.91
25945;SHT31;13742;49.306;8.636;2022-09-17T03:39:24;11.21;75.97
25945;SHT31;13742;49.306;8.636;2022-09-17T03:40:24;11.23;76.46
25945;SHT31;13742;49.306;8.636;2022-09-17T03:41:25;11.23;76.20
25945;SHT31;13742;49.306;8.636;2022-09-17T03:42:24;11.22;76.13
25945;SHT31;13742;49.306;8.636;2022-09-17T03:43:25;11.25;75.95
25945;SHT31;13742;49.306;8.636;2022-09-17T03:44:24;11.29;76.08
25945;SHT31;13742;49.306;8.636;2022-09-17T03:45:24;11.27;75.89
25945;SHT31;13742;49.306;8.636;2022-09-17T03:46:24;11.26;75.87
25945;SHT31;13742;49.306;8.636;2022-09-17T03:47:24;11.27;75.79
25945;SHT31;13742;49.306;8.636;2022-09-17T03:48:25;11.27;75.86
25945;SHT31;13742;49.306;8.636;2022-09-17T03:49:24;11.27;75.73
25945;SHT31;13742;49.306;8.636;2022-09-17T03:50:24;11.29;75.72
25945;SHT31;13742;49.306;8.636;2022-09-17T03:51:24;11.27;75.79
25945;SHT31;13742;49.306;8.636;2022-09-17T03:52:24;11.26;75.77
25945;SHT31;13742;49.306;8.636;2022-09-17T03:53:24;11.23;75.69
25945;SHT31;13742;49.306;8.636;2022-09-17T03:54:24;11.25;75.58
25945;SHT31;13742;49.306;8.636;2022-09-17T03:55:24;11.26;75.62
25945;SHT31;13742;49.306;8.636;2022-09-17T03:56:25;11.26;75.76
25945;SHT31;13742;49.306;8.636;2022-09-17T03:57:24;11.25;76.43
25945;SHT31;13742;49.306;8.636;2022-09-17T03:58:24;11.23;76.16
25945;SHT31;13742;49.306;8.636;2022-09-17T03:59:24;11.21;76.46
25945;SHT31;13742;49.306;8.636;2022-09-17T04:00:24;11.21;76.00
25945;SHT31;13742;49.306;8.636;2022-09-17T04:01:25;11.22;76.03
25945;SHT31;13742;49.306;8.636;2022-09-17T04:02:24;11.23;76.58
25945;SHT31;13742;49.306;8.636;2022-09-17T04:03:26;11.23;77.23
25945;SHT31;13742;49.306;8.636;2022-09-17T04:04:24;11.18;76.85
25945;SHT31;13742;49.306;8.636;2022-09-17T04:05:24;11.21;76.65
25945;SHT31;13742;49.306;8.636;2022-09-17T04:06:24;11.22;76.87
25945;SHT31;13742;49.306;8.636;2022-09-17T04:07:24;11.23;76.68
25945;SHT31;13742;49.306;8.636;2022-09-17T04:08:24;11.25;76.48
25945;SHT31;13742;49.306;8.636;2022-09-17T04:09:24;11.25;76.47
25945;SHT31;13742;49.306;8.636;2022-09-17T04:10:24;11.25;76.54
25945;SHT31;13742;49.306;8.636;2022-09-17T04:11:24;11.25;76.50
25945;SHT31;13742;49.306;8.636;2022-09-17T04:12:24;11.26;77.04
25945;SHT31;13742;49.306;8.636;2022-09-17T04:13:24;11.29;76.81
25945;SHT31;13742;49.306;8.636;2022-09-17T04:14:24;11.27;76.66
25945;SHT31;13742;49.306;8.636;2022-09-17T04:15:24;11.30;76.69
25945;SHT31;13742;49.306;8.636;2022-09-17T04:16:24;11.30;76.68
25945;SHT31;13742;49.306;8.636;2022-09-17T04:17:24;11.30;77.22
25945;SHT31;13742;49.306;8.636;2022-09-17T04:18:24;11.33;76.87
25945;SHT31;13742;49.306;8.636;2022-09-17T04:19:24;11.36;76.65
25945;SHT31;13742;49.306;8.636;2022-09-17T04:20:24;11.33;76.58
25945;SHT31;13742;49.306;8.636;2022-09-17T04:21:24;11.35;76.84
25945;SHT31;13742;49.306;8.636;2022-09-17T04:22:25;11.36;77.13
25945;SHT31;13742;49.306;8.636;2022-09-17T04:23:24;11.36;76.73
25945;SHT31;13742;49.306;8.636;2022-09-17T04:24:24;11.38;76.51
25945;SHT31;13742;49.306;8.636;2022-09-17T04:25:24;11.33;77.00
25945;SHT31;13742;49.306;8.636;2022-09-17T04:26:24;11.35;76.85
25945;SHT31;13742;49.306;8.636;2022-09-17T04:27:24;11.33;76.97
25945;SHT31;13742;49.306;8.636;2022-09-17T04:28:24;11.36;76.97
25945;SHT31;13742;49.306;8.636;2022-09-17T04:29:25;11.35;77.03
25945;SHT31;13742;49.306;8.636;2022-09-17T04:30:24;11.35;76.78
25945;SHT31;13742;49.306;8.636;2022-09-17T04:31:26;11.38;76.69
25945;SHT31;13742;49.306;8.636;2022-09-17T04:32:24;11.33;76.60
25945;SHT31;13742;49.306;8.636;2022-09-17T04:33:24;11.35;76.88
25945;SHT31;13742;49.306;8.636;2022-09-17T04:34:24;11.36;77.08
25945;SHT31;13742;49.306;8.636;2022-09-17T04:35:24;11.35;76.94
25945;SHT31;13742;49.306;8.636;2022-09-17T04:36:24;11.36;76.91
25945;SHT31;13742;49.306;8.636;2022-09-17T04:37:24;11.36;76.91
25945;SHT31;13742;49.306;8.636;2022-09-17T04:38:24;11.36;77.20
25945;SHT31;13742;49.306;8.636;2022-09-17T04:39:24;11.38;77.04
25945;SHT31;13742;49.306;8.636;2022-09-17T04:40:25;11.39;77.05
25945;SHT31;13742;49.306;8.636;2022-09-17T04:41:24;11.36;77.03
25945;SHT31;13742;49.306;8.636;2022-09-17T04:42:24;11.36;77.11
25945;SHT31;13742;49.306;8.636;2022-09-17T04:43:24;11.36;77.21
25945;SHT31;13742;49.306;8.636;2022-09-17T04:44:24;11.35;77.21
25945;SHT31;13742;49.306;8.636;2022-09-17T04:45:25;11.36;77.18
25945;SHT31;13742;49.306;8.636;2022-09-17T04:46:24;11.36;77.15
25945;SHT31;13742;49.306;8.636;2022-09-17T04:47:24;11.36;76.94
25945;SHT31;13742;49.306;8.636;2022-09-17T04:48:24;11.35;76.96
25945;SHT31;13742;49.306;8.636;2022-09-17T04:49:28;11.36;76.86
25945;SHT31;13742;49.306;8.636;2022-09-17T04:50:24;11.35;77.38
25945;SHT31;13742;49.306;8.636;2022-09-17T04:51:24;11.36;77.62
25945;SHT31;13742;49.306;8.636;2022-09-17T04:52:24;11.35;77.48
25945;SHT31;13742;49.306;8.636;2022-09-17T04:53:24;11.32;77.51
25945;SHT31;13742;49.306;8.636;2022-09-17T04:54:24;11.35;77.43
25945;SHT31;13742;49.306;8.636;2022-09-17T04:55:25;11.33;77.29
25945;SHT31;13742;49.306;8.636;2022-09-17T04:56:24;11.27;77.04
25945;SHT31;13742;49.306;8.636;2022-09-17T04:57:25;11.30;77.41
25945;SHT31;13742;49.306;8.636;2022-09-17T04:58:24;11.27;77.35
25945;SHT31;13742;49.306;8.636;2022-09-17T04:59:24;11.27;77.29
25945;SHT31;13742;49.306;8.636;2022-09-17T05:00:24;11.21;77.22
25945;SHT31;13742;49.306;8.636;2022-09-17T05:01:24;11.19;77.34
25945;SHT31;13742;49.306;8.636;2022-09-17T05:02:24;11.18;77.39
25945;SHT31;13742;49.306;8.636;2022-09-17T05:03:24;11.22;77.29
25945;SHT31;13742;49.306;8.636;2022-09-17T05:04:24;11.21;77.61
25945;SHT31;13742;49.306;8.636;2022-09-17T05:05:24;11.22;77.75
25945;SHT31;13742;49.306;8.636;2022-09-17T05:06:24;11.21;77.69
25945;SHT31;13742;49.306;8.636;2022-09-17T05:07:24;11.22;77.45
25945;SHT31;13742;49.306;8.636;2022-09-17T05:08:24;11.23;77.82
25945;SHT31;13742;49.306;8.636;2022-09-17T05:09:24;11.22;77.54
25945;SHT31;13742;49.306;8.636;2022-09-17T05:10:25;11.22;77.48
25945;SHT31;13742;49.306;8.636;2022-09-17T05:11:24;11.21;77.76
25945;SHT31;13742;49.306;8.636;2022-09-17T05:12:24;11.22;77.92
25945;SHT31;13742;49.306;8.636;2022-09-17T05:13:24;11.21;77.75
25945;SHT31;13742;49.306;8.636;2022-09-17T05:14:24;11.21;77.50
25945;SHT31;13742;49.306;8.636;2022-09-17T05:15:25;11.23;77.67
25945;SHT31;13742;49.306;8.636;2022-09-17T05:16:24;11.21;77.54
25945;SHT31;13742;49.306;8.636;2022-09-17T05:17:24;11.22;77.40
25945;SHT31;13742;49.306;8.636;2022-09-17T05:18:26;11.21;77.55
25945;SHT31;13742;49.306;8.636;2022-09-17T05:19:24;11.19;77.47
25945;SHT31;13742;49.306;8.636;2022-09-17T05:20:24;11.23;77.45
25945;SHT31;13742;49.306;8.636;2022-09-17T05:21:24;11.22;77.41
25945;SHT31;13742;49.306;8.636;2022-09-17T05:22:24;11.25;77.52
25945;SHT31;13742;49.306;8.636;2022-09-17T05:23:24;11.23;77.66
25945;SHT31;13742;49.306;8.636;2022-09-17T05:24:24;11.19;77.70
25945;SHT31;13742;49.306;8.636;2022-09-17T05:25:25;11.18;77.59
25945;SHT31;13742;49.306;8.636;2022-09-17T05:26:24;11.16;78.02
25945;SHT31;13742;49.306;8.636;2022-09-17T05:27:24;11.18;78.07
25945;SHT31;13742;49.306;8.636;2022-09-17T05:28:25;11.21;78.69
25945;SHT31;13742;49.306;8.636;2022-09-17T05:29:27;11.19;79.53
25945;SHT31;13742;49.306;8.636;2022-09-17T05:30:24;11.15;78.98
25945;SHT31;13742;49.306;8.636;2022-09-17T05:31:24;11.15;79.14
25945;SHT31;13742;49.306;8.636;2022-09-17T05:32:24;11.15;78.91
25945;SHT31;13742;49.306;8.636;2022-09-17T05:33:24;11.18;78.94
25945;SHT31;13742;49.306;8.636;2022-09-17T05:34:24;11.12;79.77
25945;SHT31;13742;49.306;8.636;2022-09-17T05:35:24;11.11;79.57
25945;SHT31;13742;49.306;8.636;2022-09-17T05:36:24;11.12;79.78
25945;SHT31;13742;49.306;8.636;2022-09-17T05:37:24;11.12;80.10
25945;SHT31;13742;49.306;8.636;2022-09-17T05:38:24;11.11;80.13
25945;SHT31;13742;49.306;8.636;2022-09-17T05:39:24;11.08;80.14
25945;SHT31;13742;49.306;8.636;2022-09-17T05:40:24;11.09;79.98
25945;SHT31;13742;49.306;8.636;2022-09-17T05:41:24;11.09;79.85
25945;SHT31;13742;49.306;8.636;2022-09-17T05:42:24;11.09;80.17
25945;SHT31;13742;49.306;8.636;2022-09-17T05:43:24;11.08;80.36
25945;SHT31;13742;49.306;8.636;2022-09-17T05:44:25;11.09;80.27
25945;SHT31;13742;49.306;8.636;2022-09-17T05:45:24;11.09;80.36
25945;SHT31;13742;49.306;8.636;2022-09-17T05:46:24;11.06;80.48
25945;SHT31;13742;49.306;8.636;2022-09-17T05:47:25;11.05;81.03
25945;SHT31;13742;49.306;8.636;2022-09-17T05:48:24;11.06;80.65
25945;SHT31;13742;49.306;8.636;2022-09-17T05:49:24;11.09;80.91
25945;SHT31;13742;49.306;8.636;2022-09-17T05:50:25;11.01;80.73
25945;SHT31;13742;49.306;8.636;2022-09-17T05:51:24;10.98;81.39
25945;SHT31;13742;49.306;8.636;2022-09-17T05:52:27;11.03;80.86
25945;SHT31;13742;49.306;8.636;2022-09-17T05:53:24;11.05;80.61
25945;SHT31;13742;49.306;8.636;2022-09-17T05:54:24;11.06;80.73
25945;SHT31;13742;49.306;8.636;2022-09-17T05:55:25;11.05;80.74
25945;SHT31;13742;49.306;8.636;2022-09-17T05:56:24;11.06;80.74
25945;SHT31;13742;49.306;8.636;2022-09-17T05:57:27;11.08;80.93
25945;SHT31;13742;49.306;8.636;2022-09-17T05:58:25;11.03;81.62
25945;SHT31;13742;49.306;8.636;2022-09-17T05:59:24;10.98;81.94
25945;SHT31;13742;49.306;8.636;2022-09-17T06:00:24;11.01;82.39
25945;SHT31;13742;49.306;8.636;2022-09-17T06:01:24;10.96;82.50
25945;SHT31;13742;49.306;8.636;2022-09-17T06:02:24;10.92;82.21
25945;SHT31;13742;49.306;8.636;2022-09-17T06:03:24;10.92;82.39
25945;SHT31;13742;49.306;8.636;2022-09-17T06:04:24;10.94;81.86
25945;SHT31;13742;49.306;8.636;2022-09-17T06:05:24;10.94;81.98
25945;SHT31;13742;49.306;8.636;2022-09-17T06:06:28;10.91;82.06
25945;SHT31;13742;49.306;8.636;2022-09-17T06:07:24;10.91;82.25
25945;SHT31;13742;49.306;8.636;2022-09-17T06:08:25;10.90;82.41
25945;SHT31;13742;49.306;8.636;2022-09-17T06:09:24;10.90;82.39
25945;SHT31;13742;49.306;8.636;2022-09-17T06:10:24;10.94;82.53
25945;SHT31;13742;49.306;8.636;2022-09-17T06:11:24;10.94;82.33
25945;SHT31;13742;49.306;8.636;2022-09-17T06:12:30;10.95;81.84
25945;SHT31;13742;49.306;8.636;2022-09-17T06:13:24;10.94;82.65
25945;SHT31;13742;49.306;8.636;2022-09-17T06:14:24;10.88;83.10
25945;SHT31;13742;49.306;8.636;2022-09-17T06:15:25;10.91;83.54
25945;SHT31;13742;49.306;8.636;2022-09-17T06:16:24;10.92;82.87
25945;SHT31;13742;49.306;8.636;2022-09-17T06:17:27;10.94;83.00
25945;SHT31;13742;49.306;8.636;2022-09-17T06:18:24;10.85;83.22
25945;SHT31;13742;49.306;8.636;2022-09-17T06:19:24;10.84;82.73
25945;SHT31;13742;49.306;8.636;2022-09-17T06:20:24;10.88;83.02
25945;SHT31;13742;49.306;8.636;2022-09-17T06:21:24;10.91;83.28
25945;SHT31;13742;49.306;8.636;2022-09-17T06:22:24;10.91;83.77
25945;SHT31;13742;49.306;8.636;2022-09-17T06:23:25;10.90;84.17
25945;SHT31;13742;49.306;8.636;2022-09-17T06:24:25;10.95;83.19
25945;SHT31;13742;49.306;8.636;2022-09-17T06:25:24;10.95;83.56
25945;SHT31;13742;49.306;8.636;2022-09-17T06:26:24;10.96;83.17
25945;SHT31;13742;49.306;8.636;2022-09-17T06:27:32;10.98;83.34
25945;SHT31;13742;49.306;8.636;2022-09-17T06:28:25;11.01;83.41
25945;SHT31;13742;49.306;8.636;2022-09-17T06:29:24;10.99;83.25
25945;SHT31;13742;49.306;8.636;2022-09-17T06:30:24;10.99;83.68
25945;SHT31;13742;49.306;8.636;2022-09-17T06:31:24;10.94;83.33
25945;SHT31;13742;49.306;8.636;2022-09-17T06:32:24;10.96;83.31
25945;SHT31;13742;49.306;8.636;2022-09-17T06:33:25;11.01;83.23
25945;SHT31;13742;49.306;8.636;2022-09-17T06:34:24;11.03;83.13
25945;SHT31;13742;49.306;8.636;2022-09-17T06:35:24;11.11;83.82
25945;SHT31;13742;49.306;8.636;2022-09-17T06:36:24;11.08;83.68
25945;SHT31;13742;49.306;8.636;2022-09-17T06:37:31;11.12;83.18
25945;SHT31;13742;49.306;8.636;2022-09-17T06:38:24;11.15;82.87
25945;SHT31;13742;49.306;8.636;2022-09-17T06:39:24;11.16;83.44
25945;SHT31;13742;49.306;8.636;2022-09-17T06:40:24;11.21;84.55
25945;SHT31;13742;49.306;8.636;2022-09-17T06:41:24;11.21;83.98
25945;SHT31;13742;49.306;8.636;2022-09-17T06:42:25;11.15;83.57
25945;SHT31;13742;49.306;8.636;2022-09-17T06:43:25;11.21;83.87
25945;SHT31;13742;49.306;8.636;2022-09-17T06:44:24;11.19;83.50
25945;SHT31;13742;49.306;8.636;2022-09-17T06:45:25;11.19;83.15
25945;SHT31;13742;49.306;8.636;2022-09-17T06:46:24;11.21;83.05
25945;SHT31;13742;49.306;8.636;2022-09-17T06:47:24;11.19;83.38
25945;SHT31;13742;49.306;8.636;2022-09-17T06:48:26;11.15;83.19
25945;SHT31;13742;49.306;8.636;2022-09-17T06:49:24;11.19;83.31
25945;SHT31;13742;49.306;8.636;2022-09-17T06:50:24;11.18;83.77
25945;SHT31;13742;49.306;8.636;2022-09-17T06:51:24;11.21;83.86
25945;SHT31;13742;49.306;8.636;2022-09-17T06:52:24;11.22;83.99
25945;SHT31;13742;49.306;8.636;2022-09-17T06:53:24;11.18;83.53
25945;SHT31;13742;49.306;8.636;2022-09-17T06:54:24;11.19;84.21
25945;SHT31;13742;49.306;8.636;2022-09-17T06:55:24;11.15;83.60
25945;SHT31;13742;49.306;8.636;2022-09-17T06:56:24;11.18;83.42